Viola, Minnesota
Current Conditions -  °F | °C
As of 9:13 PM on Tuesday 25 Nov 2014 (Local Time) from K9MN Reporting Station
Broken Clouds Broken Clouds  
Wind Chill:   Ceiling: 7000
Heat Index: 20°   Visibility: 10mi
Dew Point: 12°   Wind: 12mph
Humidity: 71%   Direction: 150°SSE
Pressure: 30.03"   Gusts: NA
Location:  44.0209°N, 92.2585°W
Report Text: K9MN 260313Z AUTO 15010KT 10SM BKN070 M06/M11 A3003 RMK AO1 T10651110
Loading
Personal Weather Stations






























Interactive Weather Map New forecast layout! Learn more

10-Day Weather Forecast

Advertisements
Track Severe Weather on mobile